sensor_id;sensor_type;location;lat;lon;timestamp;temperature;humidity
72952;HTU21D;61102;51.956;5.878;2022-09-02T00:01:21;21.27;35.18
72952;HTU21D;61102;51.956;5.878;2022-09-02T00:03:50;21.22;35.28
72952;HTU21D;61102;51.956;5.878;2022-09-02T00:06:17;21.20;35.35
72952;HTU21D;61102;51.956;5.878;2022-09-02T00:08:44;21.16;35.38
72952;HTU21D;61102;51.956;5.878;2022-09-02T00:11:18;21.15;35.59
72952;HTU21D;61102;51.956;5.878;2022-09-02T00:13:44;21.13;35.54
72952;HTU21D;61102;51.956;5.878;2022-09-02T00:16:11;21.09;35.56
72952;HTU21D;61102;51.956;5.878;2022-09-02T00:18:39;21.05;35.62
72952;HTU21D;61102;51.956;5.878;2022-09-02T00:21:06;21.05;35.69
72952;HTU21D;61102;51.956;5.878;2022-09-02T00:23:33;21.00;35.75
72952;HTU21D;61102;51.956;5.878;2022-09-02T00:25:59;20.99;35.88
72952;HTU21D;61102;51.956;5.878;2022-09-02T00:28:25;20.94;35.90
72952;HTU21D;61102;51.956;5.878;2022-09-02T00:30:52;20.91;36.03
72952;HTU21D;61102;51.956;5.878;2022-09-02T00:33:19;20.88;35.99
72952;HTU21D;61102;51.956;5.878;2022-09-02T00:35:45;20.88;36.03
72952;HTU21D;61102;51.956;5.878;2022-09-02T00:38:14;20.87;36.14
72952;HTU21D;61102;51.956;5.878;2022-09-02T00:40:48;20.84;36.22
72952;HTU21D;61102;51.956;5.878;2022-09-02T00:43:23;20.80;36.22
72952;HTU21D;61102;51.956;5.878;2022-09-02T00:45:49;20.79;36.18
72952;HTU21D;61102;51.956;5.878;2022-09-02T00:48:15;20.76;36.27
72952;HTU21D;61102;51.956;5.878;2022-09-02T00:50:41;20.74;36.32
72952;HTU21D;61102;51.956;5.878;2022-09-02T00:53:10;20.71;36.39
72952;HTU21D;61102;51.956;5.878;2022-09-02T00:55:46;20.71;36.44
72952;HTU21D;61102;51.956;5.878;2022-09-02T00:58:24;20.70;36.43
72952;HTU21D;61102;51.956;5.878;2022-09-02T01:00:53;20.66;36.40
72952;HTU21D;61102;51.956;5.878;2022-09-02T01:03:25;20.63;36.50
72952;HTU21D;61102;51.956;5.878;2022-09-02T01:05:54;20.59;36.53
72952;HTU21D;61102;51.956;5.878;2022-09-02T01:08:25;20.57;36.61
72952;HTU21D;61102;51.956;5.878;2022-09-02T01:10:53;20.54;36.59
72952;HTU21D;61102;51.956;5.878;2022-09-02T01:13:23;20.48;36.63
72952;HTU21D;61102;51.956;5.878;2022-09-02T01:16:02;20.47;36.82
72952;HTU21D;61102;51.956;5.878;2022-09-02T01:18:30;20.47;36.66
72952;HTU21D;61102;51.956;5.878;2022-09-02T01:20:57;20.89;35.98
72952;HTU21D;61102;51.956;5.878;2022-09-02T01:23:24;20.58;36.43
72952;HTU21D;61102;51.956;5.878;2022-09-02T01:25:51;20.46;36.66
72952;HTU21D;61102;51.956;5.878;2022-09-02T01:28:18;20.41;36.76
72952;HTU21D;61102;51.956;5.878;2022-09-02T01:30:49;20.83;35.89
72952;HTU21D;61102;51.956;5.878;2022-09-02T01:33:17;20.51;36.50
72952;HTU21D;61102;51.956;5.878;2022-09-02T01:35:43;20.41;36.80
72952;HTU21D;61102;51.956;5.878;2022-09-02T01:38:10;20.35;36.93
72952;HTU21D;61102;51.956;5.878;2022-09-02T01:40:36;20.33;37.04
72952;HTU21D;61102;51.956;5.878;2022-09-02T01:43:14;20.30;37.24
72952;HTU21D;61102;51.956;5.878;2022-09-02T01:45:43;20.26;37.21
72952;HTU21D;61102;51.956;5.878;2022-09-02T01:48:12;20.26;37.16
72952;HTU21D;61102;51.956;5.878;2022-09-02T01:50:42;20.24;37.21
72952;HTU21D;61102;51.956;5.878;2022-09-02T01:53:09;20.27;37.19
72952;HTU21D;61102;51.956;5.878;2022-09-02T01:55:35;20.26;37.21
72952;HTU21D;61102;51.956;5.878;2022-09-02T01:58:01;20.25;37.18
72952;HTU21D;61102;51.956;5.878;2022-09-02T02:00:28;20.26;37.20
72952;HTU21D;61102;51.956;5.878;2022-09-02T02:02:54;20.26;37.15
72952;HTU21D;61102;51.956;5.878;2022-09-02T02:05:21;20.28;37.14
72952;HTU21D;61102;51.956;5.878;2022-09-02T02:07:50;20.28;37.14
72952;HTU21D;61102;51.956;5.878;2022-09-02T02:10:19;20.29;37.13
72952;HTU21D;61102;51.956;5.878;2022-09-02T02:12:46;20.33;37.08
72952;HTU21D;61102;51.956;5.878;2022-09-02T02:15:15;20.30;37.22
72952;HTU21D;61102;51.956;5.878;2022-09-02T02:17:41;20.32;37.11
72952;HTU21D;61102;51.956;5.878;2022-09-02T02:20:09;20.30;37.11
72952;HTU21D;61102;51.956;5.878;2022-09-02T02:22:36;20.32;37.11
72952;HTU21D;61102;51.956;5.878;2022-09-02T02:25:04;20.31;37.07
72952;HTU21D;61102;51.956;5.878;2022-09-02T02:27:30;20.36;36.98
72952;HTU21D;61102;51.956;5.878;2022-09-02T02:30:00;20.36;37.05
72952;HTU21D;61102;51.956;5.878;2022-09-02T02:32:27;20.35;37.05
72952;HTU21D;61102;51.956;5.878;2022-09-02T02:34:53;20.37;37.04
72952;HTU21D;61102;51.956;5.878;2022-09-02T02:37:19;20.35;37.04
72952;HTU21D;61102;51.956;5.878;2022-09-02T02:39:47;20.37;37.01
72952;HTU21D;61102;51.956;5.878;2022-09-02T02:42:13;20.34;37.01
72952;HTU21D;61102;51.956;5.878;2022-09-02T02:44:43;20.33;37.11
72952;HTU21D;61102;51.956;5.878;2022-09-02T02:47:09;20.34;36.98
72952;HTU21D;61102;51.956;5.878;2022-09-02T02:49:40;20.31;37.03
72952;HTU21D;61102;51.956;5.878;2022-09-02T02:52:07;20.34;37.01
72952;HTU21D;61102;51.956;5.878;2022-09-02T02:54:33;20.32;37.01
72952;HTU21D;61102;51.956;5.878;2022-09-02T02:57:00;20.31;37.02
72952;HTU21D;61102;51.956;5.878;2022-09-02T02:59:26;20.31;37.05
72952;HTU21D;61102;51.956;5.878;2022-09-02T03:01:54;20.30;37.05
72952;HTU21D;61102;51.956;5.878;2022-09-02T03:04:20;20.30;37.08
72952;HTU21D;61102;51.956;5.878;2022-09-02T03:06:46;20.31;37.08
72952;HTU21D;61102;51.956;5.878;2022-09-02T03:09:12;20.30;37.07
72952;HTU21D;61102;51.956;5.878;2022-09-02T03:11:38;20.30;37.13
72952;HTU21D;61102;51.956;5.878;2022-09-02T03:14:05;20.74;36.29
72952;HTU21D;61102;51.956;5.878;2022-09-02T03:16:34;20.45;36.88
72952;HTU21D;61102;51.956;5.878;2022-09-02T03:19:01;20.36;37.05
72952;HTU21D;61102;51.956;5.878;2022-09-02T03:21:29;20.34;37.16
72952;HTU21D;61102;51.956;5.878;2022-09-02T03:23:56;20.31;37.27
72952;HTU21D;61102;51.956;5.878;2022-09-02T03:26:23;20.29;37.37
72952;HTU21D;61102;51.956;5.878;2022-09-02T03:28:53;20.29;37.39
72952;HTU21D;61102;51.956;5.878;2022-09-02T03:31:23;20.27;37.37
72952;HTU21D;61102;51.956;5.878;2022-09-02T03:33:50;20.31;37.33
72952;HTU21D;61102;51.956;5.878;2022-09-02T03:36:24;20.24;37.54
72952;HTU21D;61102;51.956;5.878;2022-09-02T03:38:51;20.19;37.48
72952;HTU21D;61102;51.956;5.878;2022-09-02T03:41:18;20.16;37.51
72952;HTU21D;61102;51.956;5.878;2022-09-02T03:43:46;20.13;37.59
72952;HTU21D;61102;51.956;5.878;2022-09-02T03:46:13;20.09;37.66
72952;HTU21D;61102;51.956;5.878;2022-09-02T03:48:40;20.07;37.71
72952;HTU21D;61102;51.956;5.878;2022-09-02T03:51:09;20.05;37.73
72952;HTU21D;61102;51.956;5.878;2022-09-02T03:53:35;20.06;37.77
72952;HTU21D;61102;51.956;5.878;2022-09-02T03:56:07;20.01;37.88
72952;HTU21D;61102;51.956;5.878;2022-09-02T03:58:34;20.03;37.87
72952;HTU21D;61102;51.956;5.878;2022-09-02T04:01:02;19.98;37.92
72952;HTU21D;61102;51.956;5.878;2022-09-02T04:03:29;19.98;37.95
72952;HTU21D;61102;51.956;5.878;2022-09-02T04:05:56;19.91;38.00
72952;HTU21D;61102;51.956;5.878;2022-09-02T04:08:26;19.90;38.06
72952;HTU21D;61102;51.956;5.878;2022-09-02T04:10:54;19.86;38.10
72952;HTU21D;61102;51.956;5.878;2022-09-02T04:13:21;19.86;38.05
72952;HTU21D;61102;51.956;5.878;2022-09-02T04:15:47;19.87;38.06
72952;HTU21D;61102;51.956;5.878;2022-09-02T04:18:15;19.87;38.04
72952;HTU21D;61102;51.956;5.878;2022-09-02T04:20:43;19.88;38.03
72952;HTU21D;61102;51.956;5.878;2022-09-02T04:23:09;19.90;38.10
72952;HTU21D;61102;51.956;5.878;2022-09-02T04:25:39;19.89;38.14
72952;HTU21D;61102;51.956;5.878;2022-09-02T04:28:07;19.89;38.08
72952;HTU21D;61102;51.956;5.878;2022-09-02T04:30:33;19.92;38.07
72952;HTU21D;61102;51.956;5.878;2022-09-02T04:33:02;19.91;38.10
72952;HTU21D;61102;51.956;5.878;2022-09-02T04:35:28;19.89;38.17
72952;HTU21D;61102;51.956;5.878;2022-09-02T04:37:54;19.84;38.29
72952;HTU21D;61102;51.956;5.878;2022-09-02T04:40:21;19.82;38.42
72952;HTU21D;61102;51.956;5.878;2022-09-02T04:42:49;19.81;38.39
72952;HTU21D;61102;51.956;5.878;2022-09-02T04:45:16;19.80;38.49
72952;HTU21D;61102;51.956;5.878;2022-09-02T04:47:42;19.79;38.59
72952;HTU21D;61102;51.956;5.878;2022-09-02T04:50:09;19.77;38.64
72952;HTU21D;61102;51.956;5.878;2022-09-02T04:52:36;19.76;38.66
72952;HTU21D;61102;51.956;5.878;2022-09-02T04:55:03;19.79;38.79
72952;HTU21D;61102;51.956;5.878;2022-09-02T04:57:32;19.77;38.78
72952;HTU21D;61102;51.956;5.878;2022-09-02T04:59:59;19.80;38.80
72952;HTU21D;61102;51.956;5.878;2022-09-02T05:02:26;19.80;38.78
72952;HTU21D;61102;51.956;5.878;2022-09-02T05:04:53;19.82;38.75
72952;HTU21D;61102;51.956;5.878;2022-09-02T05:07:26;19.81;38.70
72952;HTU21D;61102;51.956;5.878;2022-09-02T05:09:57;19.82;38.81
72952;HTU21D;61102;51.956;5.878;2022-09-02T05:12:23;19.84;38.71
72952;HTU21D;61102;51.956;5.878;2022-09-02T05:14:55;19.84;38.73
72952;HTU21D;61102;51.956;5.878;2022-09-02T05:17:24;19.85;38.78
72952;HTU21D;61102;51.956;5.878;2022-09-02T05:19:53;19.84;38.81
72952;HTU21D;61102;51.956;5.878;2022-09-02T05:22:20;19.86;38.78
72952;HTU21D;61102;51.956;5.878;2022-09-02T05:24:46;19.86;38.82
72952;HTU21D;61102;51.956;5.878;2022-09-02T05:27:14;19.86;38.83
72952;HTU21D;61102;51.956;5.878;2022-09-02T05:29:41;19.84;38.84
72952;HTU21D;61102;51.956;5.878;2022-09-02T05:32:08;19.86;38.86
72952;HTU21D;61102;51.956;5.878;2022-09-02T05:34:37;19.82;38.90
72952;HTU21D;61102;51.956;5.878;2022-09-02T05:37:03;19.80;38.98
72952;HTU21D;61102;51.956;5.878;2022-09-02T05:39:31;19.80;39.00
72952;HTU21D;61102;51.956;5.878;2022-09-02T05:41:58;19.79;39.02
72952;HTU21D;61102;51.956;5.878;2022-09-02T05:44:24;19.82;39.01
72952;HTU21D;61102;51.956;5.878;2022-09-02T05:46:51;19.86;39.01
72952;HTU21D;61102;51.956;5.878;2022-09-02T05:49:18;19.89;38.91
72952;HTU21D;61102;51.956;5.878;2022-09-02T05:51:57;19.97;38.85
72952;HTU21D;61102;51.956;5.878;2022-09-02T05:54:39;20.16;38.46
72952;HTU21D;61102;51.956;5.878;2022-09-02T05:57:10;20.36;38.17
72952;HTU21D;61102;51.956;5.878;2022-09-02T05:59:41;20.62;37.72
72952;HTU21D;61102;51.956;5.878;2022-09-02T06:02:12;20.81;37.37
72952;HTU21D;61102;51.956;5.878;2022-09-02T06:04:43;20.95;37.23
72952;HTU21D;61102;51.956;5.878;2022-09-02T06:07:12;21.08;36.86
72952;HTU21D;61102;51.956;5.878;2022-09-02T06:09:40;21.23;36.57
72952;HTU21D;61102;51.956;5.878;2022-09-02T06:12:07;21.29;36.49
72952;HTU21D;61102;51.956;5.878;2022-09-02T06:14:34;21.34;36.38
72952;HTU21D;61102;51.956;5.878;2022-09-02T06:17:03;21.28;36.40
72952;HTU21D;61102;51.956;5.878;2022-09-02T06:19:39;21.27;36.37
72952;HTU21D;61102;51.956;5.878;2022-09-02T06:22:07;21.22;36.43
72952;HTU21D;61102;51.956;5.878;2022-09-02T06:24:36;21.19;36.51
72952;HTU21D;61102;51.956;5.878;2022-09-02T06:27:11;21.16;36.50
72952;HTU21D;61102;51.956;5.878;2022-09-02T06:29:41;21.10;36.58
72952;HTU21D;61102;51.956;5.878;2022-09-02T06:32:08;21.05;36.64
72952;HTU21D;61102;51.956;5.878;2022-09-02T06:34:35;20.95;36.77
72952;HTU21D;61102;51.956;5.878;2022-09-02T06:37:02;21.35;36.01
72952;HTU21D;61102;51.956;5.878;2022-09-02T06:39:28;21.03;36.62
72952;HTU21D;61102;51.956;5.878;2022-09-02T06:41:56;20.89;36.88
72952;HTU21D;61102;51.956;5.878;2022-09-02T06:44:25;20.87;36.94
72952;HTU21D;61102;51.956;5.878;2022-09-02T06:46:54;20.80;37.13
72952;HTU21D;61102;51.956;5.878;2022-09-02T06:49:22;20.84;37.09
72952;HTU21D;61102;51.956;5.878;2022-09-02T06:51:51;20.87;37.12
72952;HTU21D;61102;51.956;5.878;2022-09-02T06:54:20;20.89;37.10
72952;HTU21D;61102;51.956;5.878;2022-09-02T06:56:50;20.95;36.99
72952;HTU21D;61102;51.956;5.878;2022-09-02T06:59:22;20.99;36.95
72952;HTU21D;61102;51.956;5.878;2022-09-02T07:01:51;21.05;36.94
72952;HTU21D;61102;51.956;5.878;2022-09-02T07:04:20;21.10;36.85
72952;HTU21D;61102;51.956;5.878;2022-09-02T07:07:07;21.21;36.79
72952;HTU21D;61102;51.956;5.878;2022-09-02T07:09:39;21.28;36.69
72952;HTU21D;61102;51.956;5.878;2022-09-02T07:12:10;21.32;36.66
72952;HTU21D;61102;51.956;5.878;2022-09-02T07:14:44;21.38;36.62
72952;HTU21D;61102;51.956;5.878;2022-09-02T07:17:13;21.44;36.62
72952;HTU21D;61102;51.956;5.878;2022-09-02T07:19:46;21.50;36.53
72952;HTU21D;61102;51.956;5.878;2022-09-02T07:22:13;21.60;36.47
72952;HTU21D;61102;51.956;5.878;2022-09-02T07:24:42;21.72;36.38
72952;HTU21D;61102;51.956;5.878;2022-09-02T07:27:09;21.81;36.29
72952;HTU21D;61102;51.956;5.878;2022-09-02T07:29:37;22.04;36.06
72952;HTU21D;61102;51.956;5.878;2022-09-02T07:32:04;22.33;35.80
72952;HTU21D;61102;51.956;5.878;2022-09-02T07:34:30;22.56;35.44
72952;HTU21D;61102;51.956;5.878;2022-09-02T07:36:58;22.69;35.21
72952;HTU21D;61102;51.956;5.878;2022-09-02T07:39:24;22.77;35.09
72952;HTU21D;61102;51.956;5.878;2022-09-02T07:41:51;22.81;35.09
72952;HTU21D;61102;51.956;5.878;2022-09-02T07:44:20;22.92;35.11
72952;HTU21D;61102;51.956;5.878;2022-09-02T07:46:48;23.09;34.85
72952;HTU21D;61102;51.956;5.878;2022-09-02T07:49:18;23.18;34.76
72952;HTU21D;61102;51.956;5.878;2022-09-02T07:51:49;23.31;34.60
72952;HTU21D;61102;51.956;5.878;2022-09-02T07:54:19;23.46;34.44
72952;HTU21D;61102;51.956;5.878;2022-09-02T07:56:47;23.64;34.16
72952;HTU21D;61102;51.956;5.878;2022-09-02T07:59:16;23.85;33.96
72952;HTU21D;61102;51.956;5.878;2022-09-02T08:01:43;24.10;33.64
72952;HTU21D;61102;51.956;5.878;2022-09-02T08:04:10;24.27;33.38
72952;HTU21D;61102;51.956;5.878;2022-09-02T08:06:39;24.41;33.10
72952;HTU21D;61102;51.956;5.878;2022-09-02T08:09:08;24.48;32.81
72952;HTU21D;61102;51.956;5.878;2022-09-02T08:11:43;24.58;32.75
72952;HTU21D;61102;51.956;5.878;2022-09-02T08:14:12;24.75;32.45
72952;HTU21D;61102;51.956;5.878;2022-09-02T08:16:38;24.97;32.21
72952;HTU21D;61102;51.956;5.878;2022-09-02T08:19:06;25.21;31.86
72952;HTU21D;61102;51.956;5.878;2022-09-02T08:21:32;25.34;31.62
72952;HTU21D;61102;51.956;5.878;2022-09-02T08:23:58;25.44;31.45
72952;HTU21D;61102;51.956;5.878;2022-09-02T08:26:25;25.62;31.42
72952;HTU21D;61102;51.956;5.878;2022-09-02T08:28:56;25.82;31.09
72952;HTU21D;61102;51.956;5.878;2022-09-02T08:31:22;25.99;30.80
72952;HTU21D;61102;51.956;5.878;2022-09-02T08:33:48;26.10;30.58
72952;HTU21D;61102;51.956;5.878;2022-09-02T08:36:14;26.06;30.25
72952;HTU21D;61102;51.956;5.878;2022-09-02T08:38:41;26.09;30.32
72952;HTU21D;61102;51.956;5.878;2022-09-02T08:41:41;26.23;30.08
72952;HTU21D;61102;51.956;5.878;2022-09-02T08:44:09;26.26;30.01
72952;HTU21D;61102;51.956;5.878;2022-09-02T08:46:39;26.40;30.10
72952;HTU21D;61102;51.956;5.878;2022-09-02T08:49:23;26.52;29.80
72952;HTU21D;61102;51.956;5.878;2022-09-02T08:51:57;26.54;29.74
72952;HTU21D;61102;51.956;5.878;2022-09-02T08:54:47;26.64;29.68
72952;HTU21D;61102;51.956;5.878;2022-09-02T08:57:15;26.70;29.51
72952;HTU21D;61102;51.956;5.878;2022-09-02T08:59:42;26.75;29.51
72952;HTU21D;61102;51.956;5.878;2022-09-02T09:02:32;26.77;29.52
72952;HTU21D;61102;51.956;5.878;2022-09-02T09:10:54;26.96;29.17
72952;HTU21D;61102;51.956;5.878;2022-09-02T09:16:18;26.98;29.45
72952;HTU21D;61102;51.956;5.878;2022-09-02T09:18:58;27.09;29.35
72952;HTU21D;61102;51.956;5.878;2022-09-02T09:21:26;27.21;29.07
72952;HTU21D;61102;51.956;5.878;2022-09-02T09:23:54;27.23;29.04
72952;HTU21D;61102;51.956;5.878;2022-09-02T09:26:26;27.25;29.03
72952;HTU21D;61102;51.956;5.878;2022-09-02T09:28:54;27.32;29.06
72952;HTU21D;61102;51.956;5.878;2022-09-02T09:31:23;27.42;29.10
72952;HTU21D;61102;51.956;5.878;2022-09-02T09:33:59;27.60;29.04
72952;HTU21D;61102;51.956;5.878;2022-09-02T09:39:27;27.88;28.39
72952;HTU21D;61102;51.956;5.878;2022-09-02T09:41:59;28.01;28.26
72952;HTU21D;61102;51.956;5.878;2022-09-02T09:47:07;28.17;28.18
72952;HTU21D;61102;51.956;5.878;2022-09-02T09:49:35;28.25;27.82
72952;HTU21D;61102;51.956;5.878;2022-09-02T09:52:02;28.24;27.90
72952;HTU21D;61102;51.956;5.878;2022-09-02T09:54:28;28.29;27.74
72952;HTU21D;61102;51.956;5.878;2022-09-02T09:56:55;28.27;27.84
72952;HTU21D;61102;51.956;5.878;2022-09-02T09:59:41;28.40;27.91
72952;HTU21D;61102;51.956;5.878;2022-09-02T10:02:21;28.53;27.88
72952;HTU21D;61102;51.956;5.878;2022-09-02T10:04:48;28.61;27.61
72952;HTU21D;61102;51.956;5.878;2022-09-02T10:07:20;29.11;26.88
72952;HTU21D;61102;51.956;5.878;2022-09-02T10:10:14;28.79;27.39
72952;HTU21D;61102;51.956;5.878;2022-09-02T10:12:41;28.76;27.57
72952;HTU21D;61102;51.956;5.878;2022-09-02T10:15:07;28.79;27.47
72952;HTU21D;61102;51.956;5.878;2022-09-02T10:17:42;28.78;27.35
72952;HTU21D;61102;51.956;5.878;2022-09-02T10:20:22;28.82;27.28
72952;HTU21D;61102;51.956;5.878;2022-09-02T10:28:26;29.02;27.20
72952;HTU21D;61102;51.956;5.878;2022-09-02T10:42:20;29.39;26.90
72952;HTU21D;61102;51.956;5.878;2022-09-02T10:47:39;29.66;27.04
72952;HTU21D;61102;51.956;5.878;2022-09-02T10:50:31;29.86;26.78
72952;HTU21D;61102;51.956;5.878;2022-09-02T10:55:50;30.16;26.25
72952;HTU21D;61102;51.956;5.878;2022-09-02T10:58:42;30.27;25.89
72952;HTU21D;61102;51.956;5.878;2022-09-02T11:01:26;30.31;25.89
72952;HTU21D;61102;51.956;5.878;2022-09-02T11:04:12;30.44;25.88
72952;HTU21D;61102;51.956;5.878;2022-09-02T11:06:46;30.49;25.77
72952;HTU21D;61102;51.956;5.878;2022-09-02T11:09:42;30.59;25.88
72952;HTU21D;61102;51.956;5.878;2022-09-02T11:12:12;30.63;25.67
72952;HTU21D;61102;51.956;5.878;2022-09-02T11:17:27;30.64;25.82
72952;HTU21D;61102;51.956;5.878;2022-09-02T11:20:33;30.68;25.57
72952;HTU21D;61102;51.956;5.878;2022-09-02T11:25:58;30.91;25.23
72952;HTU21D;61102;51.956;5.878;2022-09-02T11:28:37;31.00;25.01
72952;HTU21D;61102;51.956;5.878;2022-09-02T11:31:33;31.13;24.60
72952;HTU21D;61102;51.956;5.878;2022-09-02T11:37:11;31.34;24.12
72952;HTU21D;61102;51.956;5.878;2022-09-02T11:39:52;31.28;24.10
72952;HTU21D;61102;51.956;5.878;2022-09-02T11:45:31;31.43;23.55
72952;HTU21D;61102;51.956;5.878;2022-09-02T11:56:13;31.90;22.34
72952;HTU21D;61102;51.956;5.878;2022-09-02T11:58:43;31.97;22.11
72952;HTU21D;61102;51.956;5.878;2022-09-02T12:06:23;31.84;21.73
72952;HTU21D;61102;51.956;5.878;2022-09-02T12:14:05;32.00;21.42
72952;HTU21D;61102;51.956;5.878;2022-09-02T12:21:34;32.58;20.86
72952;HTU21D;61102;51.956;5.878;2022-09-02T12:29:30;33.46;18.99
72952;HTU21D;61102;51.956;5.878;2022-09-02T12:31:56;33.68;18.74
72952;HTU21D;61102;51.956;5.878;2022-09-02T12:40:28;34.34;18.06
72952;HTU21D;61102;51.956;5.878;2022-09-02T12:42:58;34.49;17.83
72952;HTU21D;61102;51.956;5.878;2022-09-02T12:45:30;34.75;17.54
72952;HTU21D;61102;51.956;5.878;2022-09-02T12:48:33;34.94;17.32
72952;HTU21D;61102;51.956;5.878;2022-09-02T12:50:55;35.29;16.83
72952;HTU21D;61102;51.956;5.878;2022-09-02T12:55:55;34.54;17.06
72952;HTU21D;61102;51.956;5.878;2022-09-02T12:58:23;34.78;16.88
72952;HTU21D;61102;51.956;5.878;2022-09-02T13:06:45;34.88;16.76
72952;HTU21D;61102;51.956;5.878;2022-09-02T13:32:24;32.29;19.85
72952;HTU21D;61102;51.956;5.878;2022-09-02T13:34:52;32.85;19.28
72952;HTU21D;61102;51.956;5.878;2022-09-02T13:37:34;32.86;19.50
72952;HTU21D;61102;51.956;5.878;2022-09-02T13:40:05;32.59;19.83
72952;HTU21D;61102;51.956;5.878;2022-09-02T13:42:32;32.23;20.46
72952;HTU21D;61102;51.956;5.878;2022-09-02T13:45:09;31.81;21.22
72952;HTU21D;61102;51.956;5.878;2022-09-02T13:47:35;31.61;21.11
72952;HTU21D;61102;51.956;5.878;2022-09-02T13:50:02;31.57;21.18
72952;HTU21D;61102;51.956;5.878;2022-09-02T13:52:30;31.63;21.04
72952;HTU21D;61102;51.956;5.878;2022-09-02T13:54:57;31.68;20.86
72952;HTU21D;61102;51.956;5.878;2022-09-02T13:57:26;31.68;20.81
72952;HTU21D;61102;51.956;5.878;2022-09-02T13:59:55;32.05;20.32
72952;HTU21D;61102;51.956;5.878;2022-09-02T14:02:28;32.15;20.33
72952;HTU21D;61102;51.956;5.878;2022-09-02T14:05:01;32.12;20.40
72952;HTU21D;61102;51.956;5.878;2022-09-02T14:07:31;32.52;19.91
72952;HTU21D;61102;51.956;5.878;2022-09-02T14:10:02;32.16;20.28
72952;HTU21D;61102;51.956;5.878;2022-09-02T14:12:31;32.04;20.60
72952;HTU21D;61102;51.956;5.878;2022-09-02T14:15:12;32.19;20.29
72952;HTU21D;61102;51.956;5.878;2022-09-02T14:17:38;32.23;20.23
72952;HTU21D;61102;51.956;5.878;2022-09-02T14:20:08;32.22;20.34
72952;HTU21D;61102;51.956;5.878;2022-09-02T14:22:35;32.24;20.16
72952;HTU21D;61102;51.956;5.878;2022-09-02T14:25:13;32.12;20.08
72952;HTU21D;61102;51.956;5.878;2022-09-02T14:27:46;32.00;20.06
72952;HTU21D;61102;51.956;5.878;2022-09-02T14:30:25;31.76;20.26
72952;HTU21D;61102;51.956;5.878;2022-09-02T14:33:15;31.59;20.47
72952;HTU21D;61102;51.956;5.878;2022-09-02T14:38:34;31.48;20.58
72952;HTU21D;61102;51.956;5.878;2022-09-02T14:41:04;31.43;20.70
72952;HTU21D;61102;51.956;5.878;2022-09-02T14:43:41;31.44;20.89
72952;HTU21D;61102;51.956;5.878;2022-09-02T14:46:24;31.35;20.89
72952;HTU21D;61102;51.956;5.878;2022-09-02T14:49:01;31.26;20.99
72952;HTU21D;61102;51.956;5.878;2022-09-02T14:51:33;31.20;20.84
72952;HTU21D;61102;51.956;5.878;2022-09-02T14:54:00;31.18;20.83
72952;HTU21D;61102;51.956;5.878;2022-09-02T14:56:49;31.14;20.45
72952;HTU21D;61102;51.956;5.878;2022-09-02T14:59:16;31.06;20.44
72952;HTU21D;61102;51.956;5.878;2022-09-02T15:01:46;30.89;20.47
72952;HTU21D;61102;51.956;5.878;2022-09-02T15:04:13;30.72;20.50
72952;HTU21D;61102;51.956;5.878;2022-09-02T15:06:41;30.62;20.44
72952;HTU21D;61102;51.956;5.878;2022-09-02T15:09:07;30.52;20.75
72952;HTU21D;61102;51.956;5.878;2022-09-02T15:11:36;30.40;20.81
72952;HTU21D;61102;51.956;5.878;2022-09-02T15:14:02;30.36;20.89
72952;HTU21D;61102;51.956;5.878;2022-09-02T15:16:28;30.24;21.18
72952;HTU21D;61102;51.956;5.878;2022-09-02T15:18:54;30.19;21.33
72952;HTU21D;61102;51.956;5.878;2022-09-02T15:21:20;30.19;21.34
72952;HTU21D;61102;51.956;5.878;2022-09-02T15:23:47;30.17;21.32
72952;HTU21D;61102;51.956;5.878;2022-09-02T15:26:15;30.13;21.27
72952;HTU21D;61102;51.956;5.878;2022-09-02T15:28:41;30.09;21.11
72952;HTU21D;61102;51.956;5.878;2022-09-02T15:31:07;30.46;20.65
72952;HTU21D;61102;51.956;5.878;2022-09-02T15:33:33;30.20;20.92
72952;HTU21D;61102;51.956;5.878;2022-09-02T15:36:26;30.10;21.15
72952;HTU21D;61102;51.956;5.878;2022-09-02T15:38:52;30.07;21.16
72952;HTU21D;61102;51.956;5.878;2022-09-02T15:41:21;29.98;21.41
72952;HTU21D;61102;51.956;5.878;2022-09-02T15:43:49;29.98;21.38
72952;HTU21D;61102;51.956;5.878;2022-09-02T15:46:38;29.90;21.46
72952;HTU21D;61102;51.956;5.878;2022-09-02T15:49:07;29.93;21.35
72952;HTU21D;61102;51.956;5.878;2022-09-02T15:51:34;29.85;21.42
72952;HTU21D;61102;51.956;5.878;2022-09-02T15:54:03;29.81;21.32
72952;HTU21D;61102;51.956;5.878;2022-09-02T15:56:30;29.79;21.15
72952;HTU21D;61102;51.956;5.878;2022-09-02T15:59:05;29.72;21.07
72952;HTU21D;61102;51.956;5.878;2022-09-02T16:01:39;29.68;21.16
72952;HTU21D;61102;51.956;5.878;2022-09-02T16:04:06;29.67;21.12
72952;HTU21D;61102;51.956;5.878;2022-09-02T16:06:33;30.08;20.27
72952;HTU21D;61102;51.956;5.878;2022-09-02T16:09:01;29.77;20.87
72952;HTU21D;61102;51.956;5.878;2022-09-02T16:11:28;29.64;20.97
72952;HTU21D;61102;51.956;5.878;2022-09-02T16:13:54;29.60;20.92
72952;HTU21D;61102;51.956;5.878;2022-09-02T16:16:20;29.52;21.10
72952;HTU21D;61102;51.956;5.878;2022-09-02T16:18:51;29.46;21.32
72952;HTU21D;61102;51.956;5.878;2022-09-02T16:21:18;29.39;21.12
72952;HTU21D;61102;51.956;5.878;2022-09-02T16:23:45;29.36;21.19
72952;HTU21D;61102;51.956;5.878;2022-09-02T16:28:46;29.24;21.22
72952;HTU21D;61102;51.956;5.878;2022-09-02T16:31:15;29.21;21.23
72952;HTU21D;61102;51.956;5.878;2022-09-02T16:33:42;29.17;21.18
72952;HTU21D;61102;51.956;5.878;2022-09-02T16:36:09;29.11;21.29
72952;HTU21D;61102;51.956;5.878;2022-09-02T16:38:36;29.05;21.21
72952;HTU21D;61102;51.956;5.878;2022-09-02T16:41:02;29.00;21.11
72952;HTU21D;61102;51.956;5.878;2022-09-02T16:43:32;28.97;21.29
72952;HTU21D;61102;51.956;5.878;2022-09-02T16:45:59;28.93;21.40
72952;HTU21D;61102;51.956;5.878;2022-09-02T16:48:30;28.91;21.50
72952;HTU21D;61102;51.956;5.878;2022-09-02T16:51:02;28.93;21.56
72952;HTU21D;61102;51.956;5.878;2022-09-02T16:53:30;28.90;21.50
72952;HTU21D;61102;51.956;5.878;2022-09-02T16:55:56;28.85;21.51
72952;HTU21D;61102;51.956;5.878;2022-09-02T16:58:22;28.79;21.53
72952;HTU21D;61102;51.956;5.878;2022-09-02T17:00:49;28.74;21.66
72952;HTU21D;61102;51.956;5.878;2022-09-02T17:03:15;28.72;21.68
72952;HTU21D;61102;51.956;5.878;2022-09-02T17:05:41;28.67;21.62
72952;HTU21D;61102;51.956;5.878;2022-09-02T17:08:07;28.63;21.69
72952;HTU21D;61102;51.956;5.878;2022-09-02T17:10:34;28.59;21.83
72952;HTU21D;61102;51.956;5.878;2022-09-02T17:13:01;28.55;21.69
72952;HTU21D;61102;51.956;5.878;2022-09-02T17:15:28;28.48;21.84
72952;HTU21D;61102;51.956;5.878;2022-09-02T17:17:54;28.46;21.93
72952;HTU21D;61102;51.956;5.878;2022-09-02T17:20:21;28.41;22.02
72952;HTU21D;61102;51.956;5.878;2022-09-02T17:22:47;28.41;22.02
72952;HTU21D;61102;51.956;5.878;2022-09-02T17:25:14;28.33;22.02
72952;HTU21D;61102;51.956;5.878;2022-09-02T17:27:41;28.28;22.06
72952;HTU21D;61102;51.956;5.878;2022-09-02T17:30:09;28.24;22.10
72952;HTU21D;61102;51.956;5.878;2022-09-02T17:32:37;28.19;22.09